Time;durP1;ratioP1;P1;durP2;ratioP2;P2;SDS_P1;SDS_P2;PMS_P1;PMS_P2;Temp;Humidity;BMP_temperature;BMP_pressure;BME280_temperature;BME280_humidity;BME280_pressure;Samples;Min_cycle;Max_cycle;Signal;HPM_P1;HPM_P2
2021/01/25 00:01:34;;;;;;;6.90;4.30;;;;;;;0.87;75.06;97202.34;119985;1144;65079;-87
2021/01/25 00:04:00;;;;;;;7.27;4.57;;;;;;;0.87;74.75;97202.34;119926;1144;65518;-85
2021/01/25 00:06:27;;;;;;;7.80;4.28;;;;;;;0.85;75.15;97209.48;120400;1142;65142;-86
2021/01/25 00:08:53;;;;;;;7.50;4.80;;;;;;;0.86;74.27;97211.16;119954;1143;65095;-87
2021/01/25 00:11:20;;;;;;;8.23;4.53;;;;;;;0.84;75.23;97202.55;119871;1144;65175;-85
2021/01/25 00:13:47;;;;;;;8.87;3.83;;;;;;;0.84;74.71;97207.80;120226;1143;65152;-84
2021/01/25 00:16:13;;;;;;;9.45;5.05;;;;;;;0.83;74.94;97212.21;119872;1144;65133;-85
2021/01/25 00:18:39;;;;;;;9.07;5.20;;;;;;;0.83;74.75;97213.97;119945;1144;65119;-85
2021/01/25 00:21:07;;;;;;;8.47;5.37;;;;;;;0.83;74.63;97212.21;119885;1144;65099;-88
2021/01/25 00:23:36;;;;;;;7.90;4.77;;;;;;;0.85;74.40;97219.99;119900;1144;65159;-86
2021/01/25 00:26:04;;;;;;;10.73;5.70;;;;;;;0.84;74.45;97223.56;119907;1144;65082;-85
2021/01/25 00:28:31;;;;;;;8.70;4.90;;;;;;;0.85;74.69;97219.99;120292;1144;65198;-85
2021/01/25 00:30:57;;;;;;;9.40;5.60;;;;;;;0.84;74.27;97231.45;119938;1144;65095;-89
2021/01/25 00:33:25;;;;;;;8.30;5.23;;;;;;;0.81;74.64;97233.30;119926;1144;65172;-86
2021/01/25 00:35:51;;;;;;;8.27;5.07;;;;;;;0.81;75.02;97235.94;119874;1144;65076;-85
2021/01/25 00:38:18;;;;;;;5.57;3.87;;;;;;;0.79;74.63;97235.20;120340;1142;65182;-86
2021/01/25 00:40:45;;;;;;;7.30;4.90;;;;;;;0.78;75.03;97241.39;119910;1144;65124;-83
2021/01/25 00:43:13;;;;;;;6.07;4.37;;;;;;;0.76;74.31;97243.28;119924;1143;65155;-88
2021/01/25 00:45:39;;;;;;;8.13;4.83;;;;;;;0.75;74.15;97249.45;119945;1144;65088;-85
2021/01/25 00:48:07;;;;;;;7.10;4.10;;;;;;;0.75;75.11;97253.86;120313;1143;65160;-86
2021/01/25 00:50:33;;;;;;;6.47;4.43;;;;;;;0.74;75.39;97247.77;119904;1143;65092;-88
2021/01/25 00:53:00;;;;;;;9.20;5.00;;;;;;;0.74;74.34;97266.16;119997;1143;65073;-85
2021/01/25 00:55:27;;;;;;;9.03;5.43;;;;;;;0.71;74.52;97261.10;119916;1144;65119;-85
2021/01/25 00:57:53;;;;;;;7.23;4.60;;;;;;;0.70;75.08;97254.16;120161;1143;64996;-84
2021/01/25 01:00:20;;;;;;;9.87;5.97;;;;;;;0.70;75.36;97256.80;119946;1144;65308;-85
2021/01/25 01:02:47;;;;;;;8.03;4.80;;;;;;;0.70;75.25;97253.29;119926;1144;65129;-88
2021/01/25 01:05:13;;;;;;;7.23;4.20;;;;;;;0.70;75.40;97261.17;119917;1143;65194;-90
2021/01/25 01:07:39;;;;;;;7.53;4.23;;;;;;;0.68;75.22;97255.17;120006;1144;65124;-85
2021/01/25 01:10:06;;;;;;;7.10;4.90;;;;;;;0.67;74.83;97259.59;120275;1143;65108;-85
2021/01/25 01:12:33;;;;;;;7.15;4.30;;;;;;;0.67;75.09;97277.98;119878;1143;65273;-88
2021/01/25 01:15:00;;;;;;;8.73;4.80;;;;;;;0.66;74.98;97278.92;120000;1144;65085;-84
2021/01/25 01:17:26;;;;;;;5.80;4.50;;;;;;;0.67;74.73;97282.39;120258;1143;65175;-89
2021/01/25 01:19:52;;;;;;;6.00;4.70;;;;;;;0.66;74.87;97284.17;119975;1143;65094;-84
2021/01/25 01:22:19;;;;;;;6.77;4.30;;;;;;;0.65;74.71;97277.23;119947;1143;66686;-85
2021/01/25 01:24:45;;;;;;;8.00;5.23;;;;;;;0.65;74.78;97282.48;119927;1144;65148;-85
2021/01/25 01:27:12;;;;;;;9.90;5.78;;;;;;;0.64;75.02;97282.59;120216;1142;65123;-83
2021/01/25 01:29:38;;;;;;;7.57;4.43;;;;;;;0.62;74.67;97277.41;120078;1144;65085;-86
2021/01/25 01:32:05;;;;;;;7.60;5.33;;;;;;;0.59;74.65;97277.61;119927;1144;65190;-88
2021/01/25 01:34:31;;;;;;;7.40;5.10;;;;;;;0.61;74.73;97275.72;119950;1143;65095;-85
2021/01/25 01:36:57;;;;;;;6.97;5.25;;;;;;;0.61;75.08;97283.60;119920;1144;65190;-89
2021/01/25 01:39:24;;;;;;;9.00;6.50;;;;;;;0.59;75.48;97277.61;120220;1143;65052;-85
2021/01/25 01:41:50;;;;;;;8.23;6.03;;;;;;;0.57;74.73;97279.45;119929;1144;65175;-86
2021/01/25 01:44:17;;;;;;;9.37;6.80;;;;;;;0.58;74.84;97281.17;119945;1144;65175;-87
2021/01/25 01:46:43;;;;;;;9.80;6.23;;;;;;;0.59;74.77;97280.23;119958;1144;65157;-85
2021/01/25 01:49:11;;;;;;;10.40;6.80;;;;;;;0.61;74.88;97285.38;120075;1143;65179;-84
2021/01/25 01:51:39;;;;;;;9.15;7.40;;;;;;;0.61;75.02;97280.97;119966;1144;65168;-86
2021/01/25 01:54:08;;;;;;;10.17;7.10;;;;;;;0.60;75.84;97279.29;119922;1143;65095;-85
2021/01/25 01:56:37;;;;;;;9.80;7.30;;;;;;;0.61;75.03;97288.86;119852;1143;65108;-87
2021/01/25 01:59:05;;;;;;;10.37;7.17;;;;;;;0.60;75.25;97289.80;120264;1142;65082;-85
2021/01/25 02:01:31;;;;;;;9.67;7.03;;;;;;;0.60;75.60;97283.70;119963;1144;65272;-85
2021/01/25 02:03:59;;;;;;;10.37;6.97;;;;;;;0.59;75.05;97293.37;119963;1143;65050;-87
2021/01/25 02:06:29;;;;;;;9.05;6.80;;;;;;;0.58;75.48;97289.05;119937;1144;65102;-87
2021/01/25 02:08:57;;;;;;;10.13;7.83;;;;;;;0.55;75.40;97291.84;120189;1144;65005;-82
2021/01/25 02:11:24;;;;;;;11.43;7.70;;;;;;;0.57;75.67;97291.75;119986;1144;65162;-88
2021/01/25 02:13:52;;;;;;;10.80;7.50;;;;;;;0.57;75.42;97282.09;119966;1143;65062;-86
2021/01/25 02:16:18;;;;;;;9.17;6.93;;;;;;;0.58;75.52;97291.68;119962;1144;65122;-90
2021/01/25 02:18:45;;;;;;;14.77;8.63;;;;;;;0.55;76.13;97286.59;119884;1143;65105;-85
2021/01/25 02:21:14;;;;;;;15.80;9.50;;;;;;;0.55;75.72;97289.22;119926;1143;65174;-87
2021/01/25 02:24:15;;;;;;;11.97;8.77;;;;;;;0.56;75.29;97282.19;119985;1143;65331;-85
2021/01/25 02:27:03;;;;;;;9.70;7.30;;;;;;;0.57;75.75;97287.34;119875;1143;65191;-86
2021/01/25 02:29:29;;;;;;;10.53;7.10;;;;;;;0.56;75.20;97285.66;119987;1144;65025;-85
2021/01/25 02:31:56;;;;;;;10.65;7.65;;;;;;;0.56;75.63;97282.19;119894;1142;65020;-87
2021/01/25 02:34:24;;;;;;;12.17;7.53;;;;;;;0.54;75.37;97290.16;119927;1145;65088;-87
2021/01/25 02:36:52;;;;;;;12.07;7.07;;;;;;;0.53;75.68;97288.48;120369;1143;65108;-86
2021/01/25 02:39:20;;;;;;;8.50;5.55;;;;;;;0.51;75.53;97293.83;120018;1144;65130;-87
2021/01/25 02:41:46;;;;;;;10.60;7.07;;;;;;;0.52;75.83;97305.18;120156;1144;65086;-87
2021/01/25 02:44:15;;;;;;;10.63;6.90;;;;;;;0.52;75.56;97300.77;119906;1144;65130;-87
2021/01/25 02:46:45;;;;;;;11.03;7.10;;;;;;;0.50;75.50;97309.66;119926;1143;65576;-88
2021/01/25 02:49:12;;;;;;;9.77;6.23;;;;;;;0.45;75.72;97307.33;119853;1144;65127;-86
2021/01/25 02:51:40;;;;;;;9.00;6.43;;;;;;;0.45;76.38;97309.95;119996;1144;65258;-84
2021/01/25 02:54:06;;;;;;;9.13;6.43;;;;;;;0.43;75.65;97310.96;120520;1144;65008;-85
2021/01/25 02:56:34;;;;;;;7.60;4.70;;;;;;;0.43;75.66;97318.84;119914;1144;65168;-89
2021/01/25 02:59:02;;;;;;;9.97;5.97;;;;;;;0.41;76.45;97318.94;119939;1145;65183;-87
2021/01/25 03:01:30;;;;;;;8.13;6.60;;;;;;;0.39;76.45;97312.09;119904;1143;65148;-86
2021/01/25 03:03:59;;;;;;;10.57;5.90;;;;;;;0.35;76.26;97313.20;119933;1144;65255;-84
2021/01/25 03:06:26;;;;;;;10.40;6.13;;;;;;;0.33;76.24;97313.30;120325;1142;65242;-86
2021/01/25 03:08:52;;;;;;;8.43;5.37;;;;;;;0.31;76.67;97309.05;119925;1144;65015;-86
2021/01/25 03:11:19;;;;;;;7.05;5.17;;;;;;;0.29;75.87;97311.77;119999;1144;65171;-88
2021/01/25 03:13:46;;;;;;;7.03;5.23;;;;;;;0.30;75.89;97312.62;119917;1143;65111;-89
2021/01/25 03:16:17;;;;;;;5.93;4.60;;;;;;;0.27;76.19;97313.66;120331;1142;65107;-86
2021/01/25 03:18:43;;;;;;;6.40;4.80;;;;;;;0.24;75.85;97314.66;119973;1144;65156;-85
2021/01/25 03:21:10;;;;;;;6.77;4.80;;;;;;;0.26;75.89;97323.31;119881;1144;65180;-85
2021/01/25 03:23:38;;;;;;;6.50;4.10;;;;;;;0.29;76.20;97321.44;119914;1144;65098;-89
2021/01/25 03:26:05;;;;;;;5.75;4.45;;;;;;;0.30;76.27;97317.87;120024;1143;65062;-86
2021/01/25 03:28:32;;;;;;;6.30;4.55;;;;;;;0.29;76.42;97314.41;119856;1143;65158;-86
2021/01/25 03:30:59;;;;;;;6.67;4.80;;;;;;;0.29;76.66;97319.66;119888;1144;65137;-86
2021/01/25 03:33:27;;;;;;;6.57;4.47;;;;;;;0.29;76.00;97326.69;119867;1144;65044;-86
2021/01/25 03:35:54;;;;;;;12.30;4.50;;;;;;;0.28;76.01;97325.00;119943;1144;65178;-85
2021/01/25 03:38:20;;;;;;;6.20;3.40;;;;;;;0.26;75.70;97330.34;120436;1144;65178;-87
2021/01/25 03:40:46;;;;;;;8.25;4.00;;;;;;;0.25;76.36;97336.51;120107;1143;65050;-84
2021/01/25 03:43:14;;;;;;;5.67;4.03;;;;;;;0.26;76.35;97338.23;119931;1144;65085;-87
2021/01/25 03:45:41;;;;;;;5.23;4.27;;;;;;;0.26;76.92;97335.59;119847;1144;65075;-84
2021/01/25 03:48:08;;;;;;;7.23;4.63;;;;;;;0.29;75.96;97327.53;119881;1142;65114;-83
2021/01/25 03:50:34;;;;;;;6.20;4.73;;;;;;;0.30;75.83;97338.88;119809;1144;65206;-85
2021/01/25 03:53:02;;;;;;;8.00;5.67;;;;;;;0.29;76.41;97351.16;119861;1141;65309;-84
2021/01/25 03:55:29;;;;;;;9.23;5.17;;;;;;;0.30;76.79;97344.12;119892;1144;65084;-86
2021/01/25 03:57:56;;;;;;;8.60;4.13;;;;;;;0.30;76.15;97341.50;119913;1143;65100;-86
2021/01/25 04:00:24;;;;;;;6.73;4.70;;;;;;;0.30;76.00;97344.12;119891;1144;65121;-86
2021/01/25 04:02:52;;;;;;;9.13;6.20;;;;;;;0.28;76.61;97346.00;119909;1144;65201;-86
2021/01/25 04:05:19;;;;;;;6.35;4.80;;;;;;;0.29;76.92;97345.06;119936;1143;65169;-85
2021/01/25 04:07:47;;;;;;;6.90;4.37;;;;;;;0.29;76.83;97347.69;120251;1143;65063;-86
2021/01/25 04:10:14;;;;;;;6.07;4.87;;;;;;;0.29;76.31;97355.56;119933;1143;65246;-84
2021/01/25 04:12:40;;;;;;;6.27;4.30;;;;;;;0.31;76.20;97356.31;119956;1144;65567;-84
2021/01/25 04:15:08;;;;;;;5.57;4.20;;;;;;;0.33;76.21;97360.56;119906;1144;65114;-86
2021/01/25 04:17:35;;;;;;;7.90;4.50;;;;;;;0.34;76.40;97362.25;120030;1143;65010;-84
2021/01/25 04:20:03;;;;;;;7.60;5.23;;;;;;;0.34;76.94;97358.78;120175;1144;65092;-85
2021/01/25 04:22:29;;;;;;;7.73;5.20;;;;;;;0.34;76.49;97366.66;119964;1144;65092;-85
2021/01/25 04:24:56;;;;;;;9.40;5.83;;;;;;;0.36;75.86;97362.16;119969;1144;65178;-87
2021/01/25 04:27:23;;;;;;;10.27;5.50;;;;;;;0.38;75.92;97360.27;119911;1143;65465;-86
2021/01/25 04:29:51;;;;;;;12.15;7.50;;;;;;;0.40;77.11;97361.05;119890;1144;65369;-87
2021/01/25 04:32:19;;;;;;;11.23;6.20;;;;;;;0.44;76.98;97357.29;119911;1144;65118;-87
2021/01/25 04:34:46;;;;;;;7.17;5.10;;;;;;;0.45;77.05;97359.01;119904;1144;65071;-86
2021/01/25 04:37:12;;;;;;;7.47;5.70;;;;;;;0.43;76.96;97358.23;119932;1143;65104;-85
2021/01/25 04:39:38;;;;;;;7.70;5.83;;;;;;;0.42;75.93;97367.05;120069;1143;65111;-84
2021/01/25 04:42:05;;;;;;;7.17;4.80;;;;;;;0.36;76.91;97365.62;120036;1144;65158;-87
2021/01/25 04:44:32;;;;;;;9.87;5.30;;;;;;;0.35;76.27;97370.97;119908;1144;65550;-85
2021/01/25 04:47:01;;;;;;;6.50;4.73;;;;;;;0.33;76.53;97370.22;119949;1144;65076;-86
2021/01/25 04:49:30;;;;;;;9.70;5.50;;;;;;;0.32;76.72;97360.62;120374;1144;65136;-88
2021/01/25 04:51:58;;;;;;;9.55;5.60;;;;;;;0.31;75.75;97372.91;119906;1143;65181;-86
2021/01/25 04:54:25;;;;;;;7.63;5.67;;;;;;;0.33;76.62;97364.97;119932;1144;64999;-85
2021/01/25 04:56:53;;;;;;;7.20;5.83;;;;;;;0.34;76.24;97367.50;119820;1144;65174;-86
2021/01/25 04:59:22;;;;;;;9.15;5.60;;;;;;;0.34;76.90;97367.50;119919;1144;65047;-87
2021/01/25 05:01:50;;;;;;;8.10;6.00;;;;;;;0.36;77.04;97367.41;119927;1144;65222;-86
2021/01/25 05:04:17;;;;;;;9.35;5.80;;;;;;;0.38;77.00;97369.02;119891;1143;65140;-90
2021/01/25 05:06:43;;;;;;;8.73;6.43;;;;;;;0.40;76.57;97374.18;119939;1142;65094;-85
2021/01/25 05:09:09;;;;;;;11.05;6.70;;;;;;;0.43;76.75;97369.58;120150;1143;65091;-85
2021/01/25 05:11:36;;;;;;;9.40;6.50;;;;;;;0.43;76.37;97372.20;120106;1143;65152;-85
2021/01/25 05:14:06;;;;;;;8.80;5.40;;;;;;;0.39;76.16;97375.12;120015;1144;65067;-85
2021/01/25 05:16:33;;;;;;;8.43;5.73;;;;;;;0.38;75.62;97383.91;120237;1143;65066;-87
2021/01/25 05:19:03;;;;;;;6.57;5.33;;;;;;;0.40;77.00;97387.31;120289;1143;65154;-87
2021/01/25 05:21:44;;;;;;;8.80;5.97;;;;;;;0.50;76.68;97388.45;119885;1143;65086;-85
2021/01/25 05:24:11;;;;;;;7.70;6.07;;;;;;;0.58;76.59;97383.62;119876;1143;65069;-85
2021/01/25 05:26:59;;;;;;;10.87;6.70;;;;;;;0.58;76.56;97391.50;119993;1143;65175;-89
2021/01/25 05:29:27;;;;;;;11.13;7.20;;;;;;;0.59;76.81;97395.81;119933;1143;65095;-87
2021/01/25 05:31:55;;;;;;;11.33;6.80;;;;;;;0.63;77.21;97388.58;120184;1144;65318;-84
2021/01/25 05:34:22;;;;;;;10.03;6.67;;;;;;;0.63;76.94;97399.93;120043;1144;65191;-86
2021/01/25 05:36:49;;;;;;;9.27;6.20;;;;;;;0.61;76.51;97396.55;119931;1142;65082;-84
2021/01/25 05:39:20;;;;;;;9.10;6.33;;;;;;;0.60;76.67;97381.73;119919;1144;65075;-89
2021/01/25 05:41:57;;;;;;;12.45;7.00;;;;;;;0.58;76.24;97380.15;119893;1144;65085;-87
2021/01/25 05:44:23;;;;;;;10.63;6.73;;;;;;;0.55;75.75;97381.16;119943;1144;65101;-86
2021/01/25 05:46:50;;;;;;;9.77;6.40;;;;;;;0.51;75.99;97384.91;119933;1144;65085;-85
2021/01/25 05:49:26;;;;;;;9.47;6.50;;;;;;;0.48;76.17;97388.55;119920;1143;65108;-84
2021/01/25 05:51:54;;;;;;;9.33;6.80;;;;;;;0.48;76.29;97392.95;120265;1144;65121;-87
2021/01/25 05:54:24;;;;;;;10.15;7.65;;;;;;;0.47;75.78;97391.27;120005;1143;65123;-84
2021/01/25 05:56:52;;;;;;;10.53;7.37;;;;;;;0.44;76.63;97388.80;119866;1144;65146;-86
2021/01/25 05:59:20;;;;;;;12.93;7.43;;;;;;;0.39;76.76;97390.88;119939;1143;65127;-89
2021/01/25 06:01:50;;;;;;;8.90;6.00;;;;;;;0.36;76.61;97388.41;120252;1144;65179;-85
2021/01/25 06:04:22;;;;;;;12.43;7.03;;;;;;;0.33;76.83;97393.85;119972;1144;65179;-84
2021/01/25 06:07:05;;;;;;;13.43;7.60;;;;;;;0.29;76.92;97397.58;119956;1144;65155;-86
2021/01/25 06:09:52;;;;;;;14.43;7.40;;;;;;;0.25;76.98;97405.64;119897;1144;65216;-86
2021/01/25 06:12:26;;;;;;;13.10;7.10;;;;;;;0.21;76.62;97409.36;119917;1143;65041;-87
2021/01/25 06:15:03;;;;;;;11.53;6.07;;;;;;;0.19;76.58;97399.86;119905;1144;65095;-88
2021/01/25 06:17:34;;;;;;;8.83;6.33;;;;;;;0.16;76.38;97405.30;120020;1143;65102;-85
2021/01/25 06:20:04;;;;;;;8.47;6.17;;;;;;;0.11;76.71;97409.95;119882;1143;65088;-87
2021/01/25 06:22:31;;;;;;;12.93;7.33;;;;;;;0.07;76.89;97400.59;120263;1144;65082;-85
2021/01/25 06:24:59;;;;;;;13.10;6.60;;;;;;;0.06;77.03;97407.58;120027;1143;65188;-85
2021/01/25 06:27:26;;;;;;;18.47;9.10;;;;;;;0.06;76.61;97423.33;120191;1144;65018;-87
2021/01/25 06:29:53;;;;;;;16.57;9.53;;;;;;;0.08;77.14;97420.64;119972;1144;65493;-87
2021/01/25 06:32:19;;;;;;;11.43;7.03;;;;;;;0.12;77.05;97425.61;119976;1143;65091;-86
2021/01/25 06:34:46;;;;;;;16.03;10.07;;;;;;;0.16;77.31;97432.40;119957;1144;65239;-85
2021/01/25 06:37:14;;;;;;;25.17;12.37;;;;;;;0.17;76.88;97431.45;120067;1143;65095;-85
2021/01/25 06:39:45;;;;;;;17.17;10.27;;;;;;;0.18;76.56;97435.77;120019;1144;65108;-86
2021/01/25 06:42:17;;;;;;;12.93;8.60;;;;;;;0.18;76.99;97438.40;120006;1143;65021;-88
2021/01/25 06:44:44;;;;;;;10.63;7.03;;;;;;;0.20;77.21;97444.43;119879;1144;65059;-88
2021/01/25 06:47:15;;;;;;;9.33;6.20;;;;;;;0.21;76.10;97446.12;119878;1144;65059;-85
2021/01/25 06:49:43;;;;;;;17.40;8.70;;;;;;;0.23;76.82;97453.90;119990;1144;65126;-84
2021/01/25 06:52:11;;;;;;;9.53;6.37;;;;;;;0.24;76.25;97458.21;119916;1142;65088;-88
2021/01/25 06:54:43;;;;;;;14.77;7.83;;;;;;;0.24;76.98;97461.68;119888;1144;65099;-89
2021/01/25 06:57:22;;;;;;;13.77;8.70;;;;;;;0.26;76.77;97456.37;119989;1143;65079;-85
2021/01/25 06:59:51;;;;;;;16.70;9.80;;;;;;;0.28;76.57;97462.37;120351;1143;65239;-86
2021/01/25 07:02:20;;;;;;;21.27;12.07;;;;;;;0.32;76.38;97466.53;120297;1144;65065;-86
2021/01/25 07:04:48;;;;;;;27.25;14.20;;;;;;;0.35;76.40;97470.75;120344;1143;65082;-86
2021/01/25 07:07:28;;;;;;;20.13;10.10;;;;;;;0.35;76.06;97466.34;120262;1143;65050;-86
2021/01/25 07:09:59;;;;;;;19.00;8.63;;;;;;;0.37;76.46;97467.09;120102;1144;65153;-86
2021/01/25 07:12:28;;;;;;;19.90;9.50;;;;;;;0.37;76.65;97477.59;120124;1143;64999;-87
2021/01/25 07:14:56;;;;;;;21.35;9.90;;;;;;;0.38;77.05;97476.69;120280;1143;65095;-85
2021/01/25 07:17:23;;;;;;;22.70;10.43;;;;;;;0.40;76.38;97482.69;120079;1144;65089;-87
2021/01/25 07:19:50;;;;;;;25.23;12.13;;;;;;;0.41;76.93;97487.01;120127;1142;65095;-86
2021/01/25 07:22:18;;;;;;;21.23;9.63;;;;;;;0.43;76.49;97490.38;120204;1144;63830;-87
2021/01/25 07:24:47;;;;;;;55.37;23.90;;;;;;;0.46;76.46;97484.13;120195;1142;65082;-85
2021/01/25 07:27:15;;;;;;;26.47;12.80;;;;;;;0.51;76.91;97490.82;120291;1143;65167;-84
2021/01/25 07:29:45;;;;;;;31.83;15.93;;;;;;;0.53;76.27;97494.20;120100;1144;65174;-85
2021/01/25 07:32:12;;;;;;;31.60;15.87;;;;;;;0.57;76.57;97494.84;120113;1144;65091;-85
2021/01/25 07:34:43;;;;;;;24.93;13.23;;;;;;;0.58;77.10;97499.20;120161;1144;65185;-85
2021/01/25 07:37:10;;;;;;;22.10;10.10;;;;;;;0.58;76.50;97504.45;120122;1143;65117;-86
2021/01/25 07:39:37;;;;;;;26.63;12.20;;;;;;;0.58;76.98;97506.23;120166;1144;65134;-85
2021/01/25 07:42:03;;;;;;;26.43;11.10;;;;;;;0.58;76.96;97501.83;120193;1144;65008;-86
2021/01/25 07:44:30;;;;;;;21.67;10.80;;;;;;;0.59;77.09;97511.39;120046;1143;65091;-85
2021/01/25 07:47:03;;;;;;;22.90;11.30;;;;;;;0.60;76.38;97504.36;120141;1144;65121;-86
2021/01/25 07:49:30;;;;;;;19.80;10.27;;;;;;;0.61;76.46;97509.52;120058;1143;65069;-87
2021/01/25 07:51:57;;;;;;;26.13;13.57;;;;;;;0.62;76.96;97507.73;120053;1144;65085;-87
2021/01/25 07:54:29;;;;;;;28.90;13.30;;;;;;;0.66;77.15;97510.11;120140;1144;65549;-85
2021/01/25 07:56:59;;;;;;;21.60;11.37;;;;;;;0.69;76.66;97522.21;120174;1143;65183;-85
2021/01/25 07:59:34;;;;;;;21.03;11.97;;;;;;;0.69;76.08;97517.80;120026;1144;65095;-86
2021/01/25 08:02:09;;;;;;;22.00;13.20;;;;;;;0.70;76.09;97516.89;120092;1143;65060;-87
2021/01/25 08:04:41;;;;;;;27.50;14.77;;;;;;;0.73;76.22;97521.95;120195;1143;65180;-84
2021/01/25 08:07:09;;;;;;;29.25;15.00;;;;;;;0.76;76.38;97519.17;120256;1144;65082;-85
2021/01/25 08:09:38;;;;;;;27.83;15.07;;;;;;;0.79;76.32;97520.77;120157;1144;65053;-86
2021/01/25 08:12:06;;;;;;;26.43;14.37;;;;;;;0.81;77.10;97527.61;120000;1144;65513;-88
2021/01/25 08:14:39;;;;;;;31.80;17.27;;;;;;;0.85;76.49;97515.16;120146;1143;65200;-84
2021/01/25 08:17:22;;;;;;;27.50;14.33;;;;;;;0.92;76.29;97518.28;120113;1144;65139;-86
2021/01/25 08:19:55;;;;;;;30.13;15.13;;;;;;;0.92;76.45;97526.16;119828;1143;65094;-89
2021/01/25 08:22:36;;;;;;;21.27;11.70;;;;;;;0.91;76.06;97529.73;119938;1142;65156;-85
2021/01/25 08:25:03;;;;;;;29.07;14.10;;;;;;;0.92;75.90;97527.01;119949;1144;65101;-85
2021/01/25 08:27:33;;;;;;;21.83;12.43;;;;;;;0.99;75.91;97530.97;119960;1143;65510;-87
2021/01/25 08:30:11;;;;;;;22.60;12.53;;;;;;;1.06;76.43;97536.72;119972;1143;65178;-88
2021/01/25 08:32:42;;;;;;;33.33;15.97;;;;;;;1.12;76.61;97528.48;119823;1144;65050;-85
2021/01/25 08:35:10;;;;;;;29.90;14.03;;;;;;;1.19;76.69;97531.59;119935;1144;65089;-87
2021/01/25 08:37:38;;;;;;;31.73;14.53;;;;;;;1.22;76.08;97529.64;119963;1144;65225;-86
2021/01/25 08:40:20;;;;;;;27.90;15.17;;;;;;;1.28;76.06;97533.70;120080;1143;65207;-86
2021/01/25 08:42:47;;;;;;;27.13;14.27;;;;;;;1.38;76.85;97534.83;120018;1144;65574;-85
2021/01/25 08:45:29;;;;;;;27.83;13.93;;;;;;;1.45;75.85;97535.31;119927;1144;65175;-87
2021/01/25 08:48:08;;;;;;;29.87;13.90;;;;;;;1.53;76.04;97533.09;120154;1143;65130;-85
2021/01/25 08:50:36;;;;;;;33.03;15.57;;;;;;;1.63;76.30;97532.42;119981;1144;65092;-85
2021/01/25 08:53:10;;;;;;;26.20;13.57;;;;;;;1.79;76.54;97528.88;120072;1143;65417;-85
2021/01/25 08:55:47;;;;;;;27.20;13.07;;;;;;;1.81;76.08;97535.73;120085;1143;65105;-84
2021/01/25 08:58:30;;;;;;;31.00;14.47;;;;;;;1.85;75.60;97534.62;119908;1143;65070;-85
2021/01/25 09:00:58;;;;;;;23.67;12.70;;;;;;;1.94;75.92;97537.63;119973;1144;65192;-85
2021/01/25 09:03:25;;;;;;;29.60;14.65;;;;;;;1.95;75.83;97534.04;119978;1144;65082;-89
2021/01/25 09:05:54;;;;;;;38.90;16.80;;;;;;;2.03;76.25;97537.04;119940;1142;65266;-85
2021/01/25 09:08:21;;;;;;;29.00;14.07;;;;;;;2.21;75.53;97541.16;120092;1143;65022;-86
2021/01/25 09:10:48;;;;;;;30.53;14.57;;;;;;;2.26;75.79;97539.09;120011;1142;65085;-86
2021/01/25 09:13:15;;;;;;;26.83;13.30;;;;;;;2.31;75.27;97539.66;119967;1143;65120;-87
2021/01/25 09:15:42;;;;;;;23.10;11.37;;;;;;;2.33;75.54;97540.40;119943;1143;65071;-89
2021/01/25 09:18:11;;;;;;;30.45;14.40;;;;;;;2.33;75.60;97543.03;119896;1144;65348;-89
2021/01/25 09:20:37;;;;;;;28.13;11.83;;;;;;;2.34;75.62;97551.78;119969;1143;65223;-87
2021/01/25 09:23:04;;;;;;;25.00;12.80;;;;;;;2.40;75.32;97546.97;119933;1143;65153;-86
2021/01/25 09:25:31;;;;;;;24.43;11.90;;;;;;;2.49;75.40;97552.63;119973;1144;65075;-85
2021/01/25 09:27:58;;;;;;;23.37;12.83;;;;;;;2.52;75.19;97560.31;119926;1143;65085;-84
2021/01/25 09:30:27;;;;;;;18.43;11.60;;;;;;;2.52;75.08;97553.26;119976;1143;65177;-87
2021/01/25 09:32:55;;;;;;;17.97;9.70;;;;;;;2.53;74.95;97552.31;120115;1143;65119;-87
2021/01/25 09:35:22;;;;;;;21.50;11.77;;;;;;;2.48;74.69;97558.81;119892;1143;65104;-86
2021/01/25 09:37:49;;;;;;;38.75;18.25;;;;;;;2.38;75.08;97558.56;120010;1141;65113;-87
2021/01/25 09:40:16;;;;;;;83.73;32.03;;;;;;;2.40;75.67;97562.78;119928;1143;65111;-89
2021/01/25 09:42:43;;;;;;;88.53;33.10;;;;;;;2.42;74.96;97567.97;120132;1143;65194;-86
2021/01/25 09:45:14;;;;;;;34.53;18.10;;;;;;;2.42;74.93;97565.34;120015;1144;65053;-86
2021/01/25 09:47:41;;;;;;;54.97;27.70;;;;;;;2.42;75.22;97560.07;120204;1142;65172;-87
2021/01/25 09:50:10;;;;;;;79.40;31.30;;;;;;;2.48;75.67;97554.38;120084;1144;65101;-85
2021/01/25 09:52:41;;;;;;;29.67;15.00;;;;;;;2.46;75.34;97551.01;120030;1144;65191;-85
2021/01/25 09:55:09;;;;;;;55.90;26.70;;;;;;;2.50;75.25;97554.31;119901;1145;65131;-85
2021/01/25 09:57:36;;;;;;;31.07;16.47;;;;;;;2.48;75.34;97556.17;119971;1144;65199;-88
2021/01/25 10:00:06;;;;;;;21.35;12.70;;;;;;;2.46;74.86;97555.44;119963;1144;65089;-85
2021/01/25 10:02:33;;;;;;;22.00;13.70;;;;;;;2.41;75.44;97567.09;119950;1144;65085;-84
2021/01/25 10:04:59;;;;;;;15.33;9.13;;;;;;;2.45;75.16;97570.41;119899;1144;65185;-88
2021/01/25 10:07:25;;;;;;;13.30;6.87;;;;;;;2.42;74.94;97571.45;119915;1144;65201;-86
2021/01/25 10:09:54;;;;;;;15.30;9.47;;;;;;;2.41;74.91;97564.46;119969;1143;65082;-85
2021/01/25 10:12:24;;;;;;;15.47;9.03;;;;;;;2.54;75.05;97559.27;119961;1144;65133;-85
2021/01/25 10:14:50;;;;;;;19.20;10.40;;;;;;;2.75;75.27;97557.07;119926;1144;64993;-85
2021/01/25 10:17:17;;;;;;;18.57;11.00;;;;;;;2.87;75.24;97560.71;119913;1144;65271;-86
2021/01/25 10:19:43;;;;;;;19.97;9.40;;;;;;;3.09;74.95;97565.42;119862;1142;65219;-86
2021/01/25 10:22:10;;;;;;;16.83;9.67;;;;;;;3.23;74.78;97563.55;119971;1143;65076;-85
2021/01/25 10:24:36;;;;;;;20.70;9.53;;;;;;;3.29;75.00;97562.30;120045;1144;65102;-85
2021/01/25 10:27:03;;;;;;;14.73;9.07;;;;;;;3.33;74.95;97571.72;119973;1144;65489;-86
2021/01/25 10:29:29;;;;;;;28.87;14.00;;;;;;;3.34;74.49;97570.77;120157;1142;65157;-85
2021/01/25 10:31:59;;;;;;;27.93;13.20;;;;;;;3.31;74.53;97572.75;120173;1144;65082;-85
2021/01/25 10:34:26;;;;;;;27.37;13.77;;;;;;;3.18;74.56;97572.71;120156;1144;65171;-85
2021/01/25 10:36:52;;;;;;;19.33;10.53;;;;;;;3.24;74.90;97572.31;120101;1143;65101;-87
2021/01/25 10:39:20;;;;;;;14.63;7.87;;;;;;;3.42;74.54;97573.73;120068;1144;65066;-86
2021/01/25 10:41:47;;;;;;;17.13;10.03;;;;;;;3.44;74.43;97571.86;120216;1144;65182;-84
2021/01/25 10:44:15;;;;;;;14.60;9.20;;;;;;;3.44;74.71;97566.58;120047;1143;65130;-87
2021/01/25 10:46:42;;;;;;;16.77;9.97;;;;;;;3.33;74.99;97571.72;120043;1144;65075;-84
2021/01/25 10:49:09;;;;;;;24.23;12.90;;;;;;;3.23;74.96;97563.55;120061;1143;65134;-85
2021/01/25 10:51:38;;;;;;;18.27;10.40;;;;;;;3.20;74.97;97568.20;120023;1144;65067;-84
2021/01/25 10:54:05;;;;;;;17.93;10.13;;;;;;;3.10;74.53;97572.38;120060;1144;64999;-84
2021/01/25 10:56:31;;;;;;;16.27;10.33;;;;;;;2.94;74.73;97573.39;119902;1143;65101;-84
2021/01/25 10:58:58;;;;;;;19.20;10.93;;;;;;;2.85;75.24;97573.97;119960;1144;65155;-84
2021/01/25 11:01:25;;;;;;;18.15;10.10;;;;;;;2.77;74.72;97578.05;120124;1143;65146;-86
2021/01/25 11:03:51;;;;;;;16.40;9.23;;;;;;;2.68;74.38;97580.34;119878;1143;65090;-85
2021/01/25 11:06:18;;;;;;;16.40;9.00;;;;;;;2.62;74.27;97586.00;119938;1143;65136;-88
2021/01/25 11:08:45;;;;;;;14.90;8.60;;;;;;;2.58;74.37;97581.02;120082;1144;65169;-85
2021/01/25 11:11:12;;;;;;;20.60;10.10;;;;;;;2.58;74.49;97575.74;120072;1143;65062;-84
2021/01/25 11:13:38;;;;;;;24.75;12.90;;;;;;;2.62;74.71;97588.64;120089;1143;65137;-86
2021/01/25 11:16:05;;;;;;;41.97;16.10;;;;;;;2.65;75.02;97587.58;120015;1144;65097;-84
2021/01/25 11:18:31;;;;;;;27.93;13.13;;;;;;;2.63;74.52;97590.33;120006;1143;65162;-84
2021/01/25 11:20:59;;;;;;;42.85;17.20;;;;;;;2.52;74.34;97592.78;119945;1144;65225;-90
2021/01/25 11:23:26;;;;;;;25.17;13.17;;;;;;;2.37;74.58;97601.66;119893;1144;65182;-88
2021/01/25 11:25:54;;;;;;;27.87;13.47;;;;;;;2.27;74.82;97598.73;120011;1143;65069;-85
2021/01/25 11:28:21;;;;;;;24.87;12.13;;;;;;;2.26;74.78;97602.31;120092;1144;65086;-88
2021/01/25 11:30:47;;;;;;;27.50;13.70;;;;;;;2.34;74.25;97601.83;119965;1144;65121;-87
2021/01/25 11:33:14;;;;;;;25.50;12.90;;;;;;;2.39;74.08;97600.61;119984;1144;65074;-86